createdAt,value
2023-03-06T00:01:37.314Z,-4.83
2023-03-06T00:04:08.589Z,-4.85
2023-03-06T00:06:37.546Z,-4.86
2023-03-06T00:09:05.957Z,-4.87
2023-03-06T00:11:38.318Z,-4.88
2023-03-06T00:14:09.815Z,-4.90
2023-03-06T00:16:39.321Z,-4.92
2023-03-06T00:19:08.353Z,-4.93
2023-03-06T00:21:41.063Z,-4.94
2023-03-06T00:24:15.019Z,-4.96
2023-03-06T00:26:44.281Z,-4.98
2023-03-06T00:29:12.403Z,-4.99
2023-03-06T00:31:48.110Z,-5.00
2023-03-06T00:34:16.350Z,-5.02
2023-03-06T00:36:44.621Z,-5.01
2023-03-06T00:39:17.602Z,-4.99
2023-03-06T00:41:47.055Z,-4.98
2023-03-06T00:44:15.308Z,-4.99
2023-03-06T00:46:44.451Z,-5.02
2023-03-06T00:49:12.550Z,-5.05
2023-03-06T00:51:40.673Z,-5.08
2023-03-06T00:54:09.132Z,-5.10
2023-03-06T00:56:37.404Z,-5.12
2023-03-06T00:59:05.989Z,-5.12
2023-03-06T01:01:34.781Z,-5.13
2023-03-06T01:04:04.014Z,-5.16
2023-03-06T01:06:34.613Z,-5.18
2023-03-06T01:09:05.973Z,-5.22
2023-03-06T01:11:35.586Z,-5.26
2023-03-06T01:14:04.139Z,-5.29
2023-03-06T01:16:37.282Z,-5.30
2023-03-06T01:19:06.208Z,-5.32
2023-03-06T01:21:34.859Z,-5.35
2023-03-06T01:24:03.354Z,-5.37
2023-03-06T01:26:32.034Z,-5.40
2023-03-06T01:29:01.168Z,-5.42
2023-03-06T01:31:30.460Z,-5.43
2023-03-06T01:33:59.639Z,-5.44
2023-03-06T01:36:28.266Z,-5.45
2023-03-06T01:39:03.857Z,-5.44
2023-03-06T01:41:32.999Z,-5.43
2023-03-06T01:44:02.037Z,-5.46
2023-03-06T01:46:34.143Z,-5.47
2023-03-06T01:49:30.797Z,-5.49
2023-03-06T01:52:16.520Z,-5.50
2023-03-06T01:54:51.582Z,-5.51
2023-03-06T01:57:26.855Z,-5.50
2023-03-06T02:00:04.383Z,-5.50
2023-03-06T02:02:48.050Z,-5.50
2023-03-06T02:05:16.635Z,-5.52
2023-03-06T02:08:05.586Z,-5.55
2023-03-06T02:10:35.225Z,-5.57
2023-03-06T02:13:03.949Z,-5.58
2023-03-06T02:15:32.593Z,-5.57
2023-03-06T02:18:03.001Z,-5.56
2023-03-06T02:20:37.964Z,-5.55
2023-03-06T02:23:22.166Z,-5.55
2023-03-06T02:25:51.190Z,-5.55
2023-03-06T02:28:21.483Z,-5.57
2023-03-06T02:30:52.006Z,-5.59
2023-03-06T02:33:23.597Z,-5.59
2023-03-06T02:36:00.208Z,-5.59
2023-03-06T02:38:43.779Z,-5.58
2023-03-06T02:41:13.138Z,-5.60
2023-03-06T02:43:43.120Z,-5.62
2023-03-06T02:46:11.918Z,-5.64
2023-03-06T02:48:41.108Z,-5.67
2023-03-06T02:51:12.535Z,-5.69
2023-03-06T02:53:41.884Z,-5.71
2023-03-06T02:56:15.891Z,-5.72
2023-03-06T02:58:45.082Z,-5.75
2023-03-06T03:01:13.590Z,-5.77
2023-03-06T03:03:45.525Z,-5.80
2023-03-06T03:06:14.234Z,-5.83
2023-03-06T03:08:44.085Z,-5.83
2023-03-06T03:11:16.840Z,-5.85
2023-03-06T03:13:48.331Z,-5.86
2023-03-06T03:16:20.910Z,-5.86
2023-03-06T03:18:53.516Z,-5.88
2023-03-06T03:21:23.935Z,-5.91
2023-03-06T03:23:54.717Z,-5.92
2023-03-06T03:26:23.531Z,-5.94
2023-03-06T03:28:58.827Z,-5.95
2023-03-06T03:31:28.503Z,-5.96
2023-03-06T03:33:58.426Z,-5.98
2023-03-06T03:36:27.774Z,-6.02
2023-03-06T03:38:57.903Z,-6.06
2023-03-06T03:41:27.277Z,-6.09
2023-03-06T03:43:56.021Z,-6.12
2023-03-06T03:46:31.409Z,-6.14
2023-03-06T03:49:01.341Z,-6.16
2023-03-06T03:51:30.654Z,-6.16
2023-03-06T03:53:59.666Z,-6.16
2023-03-06T03:56:29.953Z,-6.16
2023-03-06T03:59:02.883Z,-6.17
2023-03-06T04:01:35.765Z,-6.20
2023-03-06T04:04:05.813Z,-6.23
2023-03-06T04:06:34.408Z,-6.23
2023-03-06T04:09:04.691Z,-6.22
2023-03-06T04:11:34.799Z,-6.23
2023-03-06T04:14:03.700Z,-6.21
2023-03-06T04:16:32.990Z,-6.21
2023-03-06T04:19:01.968Z,-6.21
2023-03-06T04:21:33.736Z,-6.20
2023-03-06T04:24:03.762Z,-6.20
2023-03-06T04:26:32.462Z,-6.17
2023-03-06T04:29:01.122Z,-6.12
2023-03-06T04:31:32.398Z,-6.08
2023-03-06T04:34:01.108Z,-6.05
2023-03-06T04:36:34.390Z,-6.01
2023-03-06T04:39:09.843Z,-5.95
2023-03-06T04:41:42.631Z,-5.88
2023-03-06T04:44:11.420Z,-5.79
2023-03-06T04:46:40.088Z,-5.68
2023-03-06T04:49:09.304Z,-5.55
2023-03-06T04:51:38.023Z,-5.43
2023-03-06T04:54:06.633Z,-5.32
2023-03-06T04:56:35.477Z,-5.18
2023-03-06T04:59:04.881Z,-5.04
2023-03-06T05:01:33.932Z,-4.90
2023-03-06T05:04:03.569Z,-4.76
2023-03-06T05:06:32.663Z,-4.64
2023-03-06T05:09:01.475Z,-4.50
2023-03-06T05:11:30.469Z,-4.38
2023-03-06T05:13:59.578Z,-4.28
2023-03-06T05:16:36.610Z,-4.16
2023-03-06T05:19:07.138Z,-4.05
2023-03-06T05:21:35.686Z,-3.95
2023-03-06T05:24:05.411Z,-3.85
2023-03-06T05:26:35.097Z,-3.77
2023-03-06T05:29:03.837Z,-3.72
2023-03-06T05:31:32.479Z,-3.68
2023-03-06T05:34:02.585Z,-3.66
2023-03-06T05:36:32.389Z,-3.62
2023-03-06T05:39:02.353Z,-3.57
2023-03-06T05:41:30.910Z,-3.53
2023-03-06T05:44:00.858Z,-3.51
2023-03-06T05:46:29.649Z,-3.46
2023-03-06T05:48:58.054Z,-3.40
2023-03-06T05:51:26.956Z,-3.33
2023-03-06T05:53:55.636Z,-3.28
2023-03-06T05:56:24.378Z,-3.23
2023-03-06T05:58:53.041Z,-3.16
2023-03-06T06:01:22.255Z,-3.08
2023-03-06T06:03:51.602Z,-3.01
2023-03-06T06:06:20.270Z,-2.95
2023-03-06T06:08:49.254Z,-2.88
2023-03-06T06:11:18.819Z,-2.82
2023-03-06T06:13:53.722Z,-2.74
2023-03-06T06:16:22.441Z,-2.67
2023-03-06T06:18:51.231Z,-2.62
2023-03-06T06:21:21.240Z,-2.57
2023-03-06T06:23:51.962Z,-2.51
2023-03-06T06:26:20.882Z,-2.46
2023-03-06T06:28:49.607Z,-2.40
2023-03-06T06:31:18.148Z,-2.33
2023-03-06T06:33:46.755Z,-2.24
2023-03-06T06:36:19.147Z,-2.18
2023-03-06T06:38:47.925Z,-2.11
2023-03-06T06:44:08.964Z,-1.96
2023-03-06T06:49:28.729Z,-1.82
2023-03-06T06:51:57.940Z,-1.74
2023-03-06T06:54:26.560Z,-1.66
2023-03-06T06:56:55.637Z,-1.59
2023-03-06T06:59:24.277Z,-1.52
2023-03-06T07:01:53.538Z,-1.46
2023-03-06T07:04:22.597Z,-1.40
2023-03-06T07:06:51.371Z,-1.32
2023-03-06T07:09:20.373Z,-1.24
2023-03-06T07:11:49.028Z,-1.16
2023-03-06T07:14:18.918Z,-1.10
2023-03-06T07:16:48.333Z,-1.03
2023-03-06T07:19:21.350Z,-0.95
2023-03-06T07:21:51.108Z,-0.87
2023-03-06T07:24:20.001Z,-0.78
2023-03-06T07:26:48.576Z,-0.70
2023-03-06T07:29:17.653Z,-0.62
2023-03-06T07:31:46.902Z,-0.55
2023-03-06T07:34:15.979Z,-0.47
2023-03-06T07:36:44.597Z,-0.38
2023-03-06T07:39:13.300Z,-0.30
2023-03-06T07:41:42.539Z,-0.25
2023-03-06T07:44:11.148Z,-0.16
2023-03-06T07:46:41.267Z,-0.09
2023-03-06T07:49:10.187Z,-0.03
2023-03-06T07:51:39.922Z,0.01
2023-03-06T07:54:08.657Z,0.05
2023-03-06T07:56:37.691Z,0.06
2023-03-06T07:59:06.447Z,-0.01
2023-03-06T08:01:36.575Z,-0.06
2023-03-06T08:04:06.146Z,-0.08
2023-03-06T08:06:35.125Z,-0.09
2023-03-06T08:09:07.679Z,-0.10
2023-03-06T08:11:36.568Z,-0.14
2023-03-06T08:14:06.694Z,-0.16
2023-03-06T08:16:37.853Z,-0.20
2023-03-06T08:19:06.896Z,-0.25
2023-03-06T08:21:36.576Z,-0.28
2023-03-06T08:24:08.536Z,-0.29
2023-03-06T08:26:39.578Z,-0.26
2023-03-06T08:29:09.917Z,-0.20
2023-03-06T08:31:43.087Z,-0.11
2023-03-06T08:34:17.181Z,-0.04
2023-03-06T08:36:50.761Z,0.03
2023-03-06T08:39:21.312Z,0.10
2023-03-06T08:41:50.306Z,0.15
2023-03-06T08:44:19.446Z,0.19
2023-03-06T08:46:48.024Z,0.25
2023-03-06T08:49:17.029Z,0.30
2023-03-06T08:51:46.236Z,0.32
2023-03-06T08:54:15.255Z,0.34
2023-03-06T08:56:45.618Z,0.38
2023-03-06T08:59:14.748Z,0.42
2023-03-06T09:01:45.525Z,0.49
2023-03-06T09:04:34.493Z,0.60
2023-03-06T09:07:04.787Z,0.72
2023-03-06T09:09:33.347Z,0.85
2023-03-06T09:12:02.346Z,0.94
2023-03-06T09:14:31.901Z,1.01
2023-03-06T09:17:00.509Z,1.08
2023-03-06T09:19:29.309Z,1.15
2023-03-06T09:22:00.702Z,1.20
2023-03-06T09:24:31.908Z,1.26
2023-03-06T09:27:02.384Z,1.35
2023-03-06T09:29:31.087Z,1.43
2023-03-06T09:31:59.792Z,1.49
2023-03-06T09:34:28.500Z,1.54
2023-03-06T09:37:03.269Z,1.64
2023-03-06T09:39:31.994Z,1.76
2023-03-06T09:42:00.930Z,1.86
2023-03-06T09:44:31.550Z,1.96
2023-03-06T09:47:23.146Z,2.02
2023-03-06T09:50:13.896Z,2.11
2023-03-06T09:52:48.658Z,2.15
2023-03-06T09:55:27.476Z,2.16
2023-03-06T09:58:07.261Z,2.19
2023-03-06T10:00:39.479Z,2.24
2023-03-06T10:03:17.823Z,2.26
2023-03-06T10:05:53.014Z,2.29
2023-03-06T10:08:25.717Z,2.30
2023-03-06T10:11:11.845Z,2.37
2023-03-06T10:13:50.780Z,2.47
2023-03-06T10:16:29.439Z,2.53
2023-03-06T10:19:20.364Z,2.54
2023-03-06T10:21:58.886Z,2.56
2023-03-06T10:24:31.715Z,2.56
2023-03-06T10:27:21.751Z,2.53
2023-03-06T10:30:11.011Z,2.53
2023-03-06T10:32:58.859Z,2.53
2023-03-06T10:35:53.369Z,2.54
2023-03-06T10:38:26.299Z,2.53
2023-03-06T10:41:07.637Z,2.53
2023-03-06T10:43:41.047Z,2.57
2023-03-06T10:46:13.411Z,2.64
2023-03-06T10:48:45.914Z,2.71
2023-03-06T10:51:24.334Z,2.78
2023-03-06T10:54:00.909Z,2.81
2023-03-06T10:56:46.335Z,2.82
2023-03-06T10:59:18.859Z,2.85
2023-03-06T11:01:49.747Z,2.88
2023-03-06T11:04:29.444Z,2.95
2023-03-06T11:07:06.566Z,2.99
2023-03-06T11:09:35.725Z,2.98
2023-03-06T11:12:25.098Z,2.97
2023-03-06T11:15:10.339Z,2.98
2023-03-06T11:17:55.408Z,2.98
2023-03-06T11:20:24.780Z,2.99
2023-03-06T11:22:57.561Z,3.01
2023-03-06T11:25:55.231Z,3.00
2023-03-06T11:28:26.202Z,2.97
2023-03-06T11:31:03.397Z,2.99
2023-03-06T11:33:50.547Z,3.04
2023-03-06T11:36:55.732Z,3.09
2023-03-06T11:39:29.497Z,3.14
2023-03-06T11:42:20.574Z,3.18
2023-03-06T11:45:03.445Z,3.20
2023-03-06T11:47:54.319Z,3.20
2023-03-06T11:50:33.854Z,3.27
2023-03-06T11:53:06.638Z,3.30
2023-03-06T11:56:00.617Z,3.30
2023-03-06T11:58:58.268Z,3.27
2023-03-06T12:02:02.440Z,3.34
2023-03-06T12:04:49.569Z,3.43
2023-03-06T12:07:22.126Z,3.48
2023-03-06T12:10:23.795Z,3.56
2023-03-06T12:13:05.693Z,3.62
2023-03-06T12:15:46.796Z,3.62
2023-03-06T12:18:51.079Z,3.67
2023-03-06T12:21:32.692Z,3.68
2023-03-06T12:24:23.513Z,3.68
2023-03-06T12:27:17.544Z,3.70
2023-03-06T12:30:24.775Z,3.73
2023-03-06T12:33:08.059Z,3.77
2023-03-06T12:35:46.487Z,3.86
2023-03-06T12:38:24.108Z,3.93
2023-03-06T12:41:11.728Z,3.95
2023-03-06T12:44:06.971Z,3.92
2023-03-06T12:46:42.294Z,3.88
2023-03-06T12:49:33.043Z,3.84
2023-03-06T12:52:02.283Z,3.80
2023-03-06T12:54:33.064Z,3.73
2023-03-06T12:57:01.794Z,3.65
2023-03-06T12:59:50.600Z,3.60
2023-03-06T13:02:44.735Z,3.59
2023-03-06T13:05:25.724Z,3.54
2023-03-06T13:08:27.552Z,3.47
2023-03-06T13:11:31.790Z,3.45
2023-03-06T13:14:01.102Z,3.42
2023-03-06T13:16:34.179Z,3.39
2023-03-06T13:19:24.581Z,3.36
2023-03-06T13:21:56.292Z,3.34
2023-03-06T13:24:27.022Z,3.32
2023-03-06T13:26:57.686Z,3.25
2023-03-06T13:29:38.551Z,3.22
2023-03-06T13:32:18.469Z,3.18
2023-03-06T13:34:48.688Z,3.14
2023-03-06T13:37:23.332Z,3.07
2023-03-06T13:39:59.573Z,3.02
2023-03-06T13:42:59.827Z,2.96
2023-03-06T13:45:38.688Z,2.88
2023-03-06T13:48:33.364Z,2.82
2023-03-06T13:50:56.673Z,2.78
2023-03-06T13:53:47.620Z,2.74
2023-03-06T13:56:58.431Z,2.69
2023-03-06T13:59:34.806Z,2.66
2023-03-06T14:02:18.800Z,2.65
2023-03-06T14:04:59.481Z,2.66
2023-03-06T14:07:31.556Z,2.67
2023-03-06T14:10:25.209Z,2.67
2023-03-06T14:13:08.382Z,2.64
2023-03-06T14:15:46.014Z,2.61
2023-03-06T14:18:26.313Z,2.58
2023-03-06T14:20:55.493Z,2.57
2023-03-06T14:23:42.602Z,2.56
2023-03-06T14:26:18.475Z,2.55
2023-03-06T14:28:53.555Z,2.54
2023-03-06T14:31:25.270Z,2.52
2023-03-06T14:33:56.753Z,2.50
2023-03-06T14:36:34.705Z,2.50
2023-03-06T14:39:12.451Z,2.49
2023-03-06T14:41:41.310Z,2.46
2023-03-06T14:44:27.162Z,2.43
2023-03-06T14:46:56.723Z,2.40
2023-03-06T14:49:26.026Z,2.34
2023-03-06T14:51:56.639Z,2.28
2023-03-06T14:54:29.299Z,2.23
2023-03-06T14:57:09.119Z,2.17
2023-03-06T14:59:45.721Z,2.10
2023-03-06T15:02:21.815Z,2.03
2023-03-06T15:05:02.661Z,1.94
2023-03-06T15:07:32.866Z,1.86
2023-03-06T15:10:01.401Z,1.79
2023-03-06T15:12:34.749Z,1.73
2023-03-06T15:15:10.670Z,1.65
2023-03-06T15:17:41.930Z,1.58
2023-03-06T15:20:38.075Z,1.54
2023-03-06T15:23:21.790Z,1.48
2023-03-06T15:26:00.479Z,1.42
2023-03-06T15:28:35.374Z,1.36
2023-03-06T15:31:11.132Z,1.30
2023-03-06T15:33:42.282Z,1.24
2023-03-06T15:36:27.846Z,1.19
2023-03-06T15:39:00.973Z,1.13
2023-03-06T15:41:37.557Z,1.10
2023-03-06T15:44:12.257Z,1.06
2023-03-06T15:46:42.441Z,1.04
2023-03-06T15:49:15.141Z,1.02
2023-03-06T15:51:45.416Z,0.99
2023-03-06T15:54:14.082Z,0.96
2023-03-06T15:56:43.720Z,0.94
2023-03-06T15:59:24.893Z,0.90
2023-03-06T16:01:55.208Z,0.88
2023-03-06T16:04:24.277Z,0.86
2023-03-06T16:06:53.690Z,0.86
2023-03-06T16:09:26.945Z,0.85
2023-03-06T16:11:56.635Z,0.83
2023-03-06T16:14:25.327Z,0.80
2023-03-06T16:16:54.432Z,0.78
2023-03-06T16:19:26.863Z,0.75
2023-03-06T16:21:56.427Z,0.71
2023-03-06T16:24:26.903Z,0.68
2023-03-06T16:26:55.771Z,0.64
2023-03-06T16:29:26.033Z,0.60
2023-03-06T16:31:55.481Z,0.56
2023-03-06T16:34:24.284Z,0.54
2023-03-06T16:36:53.955Z,0.52
2023-03-06T16:39:23.476Z,0.52
2023-03-06T16:41:55.568Z,0.52
2023-03-06T16:44:24.694Z,0.51
2023-03-06T16:46:53.290Z,0.51
2023-03-06T16:49:24.277Z,0.50
2023-03-06T16:51:53.459Z,0.48
2023-03-06T16:54:24.481Z,0.45
2023-03-06T16:56:53.120Z,0.41
2023-03-06T16:59:25.289Z,0.38
2023-03-06T17:01:54.409Z,0.35
2023-03-06T17:04:23.215Z,0.33
2023-03-06T17:06:55.404Z,0.31
2023-03-06T17:09:24.062Z,0.29
2023-03-06T17:11:52.469Z,0.27
2023-03-06T17:14:25.085Z,0.25
2023-03-06T17:16:53.917Z,0.21
2023-03-06T17:19:22.731Z,0.18
2023-03-06T17:21:51.631Z,0.15
2023-03-06T17:24:20.333Z,0.13
2023-03-06T17:26:49.446Z,0.12
2023-03-06T17:29:18.222Z,0.12
2023-03-06T17:31:47.054Z,0.12
2023-03-06T17:34:15.902Z,0.12
2023-03-06T17:36:44.733Z,0.12
2023-03-06T17:39:14.077Z,0.12
2023-03-06T17:41:45.250Z,0.10
2023-03-06T17:44:20.428Z,0.08
2023-03-06T17:46:50.260Z,0.06
2023-03-06T17:49:21.753Z,0.04
2023-03-06T17:51:50.428Z,0.02
2023-03-06T17:54:19.446Z,0.01
2023-03-06T17:56:49.139Z,0.00
2023-03-06T17:59:17.977Z,-0.02
2023-03-06T18:01:47.215Z,-0.04
2023-03-06T18:04:17.347Z,-0.06
2023-03-06T18:06:46.251Z,-0.08
2023-03-06T18:09:15.139Z,-0.10
2023-03-06T18:11:46.574Z,-0.11
2023-03-06T18:14:16.123Z,-0.11
2023-03-06T18:16:53.877Z,-0.11
2023-03-06T18:19:22.952Z,-0.12
2023-03-06T18:21:51.881Z,-0.13
2023-03-06T18:24:21.264Z,-0.16
2023-03-06T18:26:50.362Z,-0.18
2023-03-06T18:29:19.359Z,-0.20
2023-03-06T18:31:50.507Z,-0.21
2023-03-06T18:34:19.353Z,-0.23
2023-03-06T18:36:51.760Z,-0.24
2023-03-06T18:39:21.584Z,-0.24
2023-03-06T18:41:56.098Z,-0.25
2023-03-06T18:44:26.026Z,-0.26
2023-03-06T18:46:56.036Z,-0.27
2023-03-06T18:49:25.555Z,-0.29
2023-03-06T18:51:54.769Z,-0.29
2023-03-06T18:54:25.427Z,-0.31
2023-03-06T18:56:53.593Z,-0.31
2023-03-06T18:59:42.430Z,-0.31
2023-03-06T19:02:12.570Z,-0.32
2023-03-06T19:04:41.306Z,-0.32
2023-03-06T19:07:09.978Z,-0.33
2023-03-06T19:09:44.274Z,-0.34
2023-03-06T19:12:13.348Z,-0.35
2023-03-06T19:14:42.084Z,-0.35
2023-03-06T19:17:10.308Z,-0.35
2023-03-06T19:19:39.244Z,-0.35
2023-03-06T19:22:07.431Z,-0.35
2023-03-06T19:24:41.578Z,-0.36
2023-03-06T19:27:11.718Z,-0.36
2023-03-06T19:29:45.160Z,-0.36
2023-03-06T19:32:17.050Z,-0.35
2023-03-06T19:34:48.708Z,-0.34
2023-03-06T19:37:17.268Z,-0.33
2023-03-06T19:39:46.764Z,-0.32
2023-03-06T19:42:15.514Z,-0.33
2023-03-06T19:44:44.424Z,-0.33
2023-03-06T19:47:12.987Z,-0.32
2023-03-06T19:49:42.728Z,-0.32
2023-03-06T19:52:11.514Z,-0.30
2023-03-06T19:54:41.009Z,-0.29
2023-03-06T19:57:10.230Z,-0.27
2023-03-06T19:59:41.017Z,-0.26
2023-03-06T20:02:11.426Z,-0.25
2023-03-06T20:04:40.235Z,-0.25
2023-03-06T20:07:09.092Z,-0.25
2023-03-06T20:09:39.087Z,-0.24
2023-03-06T20:12:08.347Z,-0.24
2023-03-06T20:14:38.157Z,-0.24
2023-03-06T20:17:08.014Z,-0.25
2023-03-06T20:19:36.801Z,-0.27
2023-03-06T20:22:05.655Z,-0.29
2023-03-06T20:24:34.438Z,-0.31
2023-03-06T20:27:03.678Z,-0.32
2023-03-06T20:29:32.997Z,-0.32
2023-03-06T20:32:02.874Z,-0.33
2023-03-06T20:34:33.263Z,-0.33
2023-03-06T20:37:01.900Z,-0.33
2023-03-06T20:39:30.965Z,-0.34
2023-03-06T20:42:00.448Z,-0.34
2023-03-06T20:44:30.135Z,-0.35
2023-03-06T20:46:59.360Z,-0.36
2023-03-06T20:49:31.113Z,-0.36
2023-03-06T20:51:59.820Z,-0.36
2023-03-06T20:54:28.513Z,-0.35
2023-03-06T20:56:57.735Z,-0.36
2023-03-06T20:59:26.365Z,-0.37
2023-03-06T21:01:55.753Z,-0.38
2023-03-06T21:04:25.443Z,-0.39
2023-03-06T21:06:55.075Z,-0.40
2023-03-06T21:09:24.108Z,-0.41
2023-03-06T21:11:53.207Z,-0.42
2023-03-06T21:14:22.488Z,-0.43
2023-03-06T21:16:51.320Z,-0.44
2023-03-06T21:19:25.695Z,-0.45
2023-03-06T21:21:54.407Z,-0.47
2023-03-06T21:24:22.994Z,-0.47
2023-03-06T21:26:52.259Z,-0.48
2023-03-06T21:29:21.229Z,-0.49
2023-03-06T21:31:50.292Z,-0.50
2023-03-06T21:34:20.645Z,-0.50
2023-03-06T21:36:49.528Z,-0.51
2023-03-06T21:39:18.145Z,-0.51
2023-03-06T21:41:46.733Z,-0.51
2023-03-06T21:44:15.576Z,-0.50
2023-03-06T21:46:44.823Z,-0.49
2023-03-06T21:49:15.079Z,-0.48
2023-03-06T21:51:44.361Z,-0.47
2023-03-06T21:54:13.232Z,-0.46
2023-03-06T21:56:43.875Z,-0.44
2023-03-06T21:59:12.677Z,-0.42
2023-03-06T22:01:42.904Z,-0.41
2023-03-06T22:04:11.720Z,-0.40
2023-03-06T22:06:43.002Z,-0.38
2023-03-06T22:09:14.000Z,-0.35
2023-03-06T22:11:43.398Z,-0.32
2023-03-06T22:14:14.964Z,-0.30
2023-03-06T22:16:51.140Z,-0.29
2023-03-06T22:19:19.837Z,-0.28
2023-03-06T22:21:48.401Z,-0.27
2023-03-06T22:24:16.991Z,-0.25
2023-03-06T22:26:46.123Z,-0.22
2023-03-06T22:29:14.962Z,-0.20
2023-03-06T22:31:44.788Z,-0.18
2023-03-06T22:34:13.390Z,-0.17
2023-03-06T22:37:02.041Z,-0.15
2023-03-06T22:39:32.034Z,-0.15
2023-03-06T22:42:00.775Z,-0.13
2023-03-06T22:44:29.658Z,-0.13
2023-03-06T22:46:58.560Z,-0.13
2023-03-06T22:49:27.760Z,-0.16
2023-03-06T22:51:56.290Z,-0.16
2023-03-06T22:54:26.862Z,-0.19
2023-03-06T22:56:56.009Z,-0.20
2023-03-06T22:59:24.732Z,-0.22
2023-03-06T23:01:54.998Z,-0.24
2023-03-06T23:04:23.951Z,-0.26
2023-03-06T23:06:52.790Z,-0.28
2023-03-06T23:09:22.299Z,-0.30
2023-03-06T23:12:11.859Z,-0.31
2023-03-06T23:14:59.932Z,-0.32
2023-03-06T23:17:47.722Z,-0.33
2023-03-06T23:20:42.439Z,-0.34
2023-03-06T23:23:35.596Z,-0.37
2023-03-06T23:26:08.703Z,-0.39
2023-03-06T23:28:37.485Z,-0.39
2023-03-06T23:31:15.900Z,-0.40
2023-03-06T23:33:44.361Z,-0.40
2023-03-06T23:36:13.684Z,-0.39
2023-03-06T23:38:42.228Z,-0.39
2023-03-06T23:41:16.410Z,-0.39
2023-03-06T23:43:45.709Z,-0.40
2023-03-06T23:46:13.898Z,-0.41
2023-03-06T23:48:43.230Z,-0.42
2023-03-06T23:51:19.230Z,-0.42
2023-03-06T23:53:48.157Z,-0.42
2023-03-06T23:56:17.090Z,-0.43
2023-03-06T23:58:45.709Z,-0.44
